createdAt,value
2023-03-27T00:01:34.291Z,43.15
2023-03-27T00:04:02.523Z,42.90
2023-03-27T00:06:34.623Z,43.02
2023-03-27T00:09:03.824Z,42.44
2023-03-27T00:11:31.964Z,42.56
2023-03-27T00:14:00.676Z,42.55
2023-03-27T00:16:28.762Z,42.94
2023-03-27T00:18:57.073Z,42.98
2023-03-27T00:21:26.149Z,42.45
2023-03-27T00:23:56.693Z,42.12
2023-03-27T00:26:24.984Z,42.65
2023-03-27T00:28:54.893Z,42.87
2023-03-27T00:31:23.156Z,42.85
2023-03-27T00:33:51.327Z,42.18
2023-03-27T00:36:19.450Z,42.80
2023-03-27T00:38:47.634Z,42.31
2023-03-27T00:41:17.191Z,42.63
2023-03-27T00:43:45.448Z,42.82
2023-03-27T00:46:31.790Z,42.34
2023-03-27T00:49:01.595Z,42.71
2023-03-27T00:51:29.733Z,42.44
2023-03-27T00:53:57.987Z,42.75
2023-03-27T00:56:27.954Z,42.66
2023-03-27T00:58:57.444Z,42.47
2023-03-27T01:01:27.791Z,42.37
2023-03-27T01:03:56.293Z,42.39
2023-03-27T01:06:24.410Z,42.08
2023-03-27T01:08:52.941Z,42.19
2023-03-27T01:11:25.080Z,42.58
2023-03-27T01:14:01.997Z,42.41
2023-03-27T01:16:32.126Z,42.02
2023-03-27T01:19:06.199Z,42.36
2023-03-27T01:21:54.922Z,41.97
2023-03-27T01:24:41.377Z,42.32
2023-03-27T01:27:16.249Z,42.45
2023-03-27T01:29:52.266Z,41.99
2023-03-27T01:32:44.754Z,42.65
2023-03-27T01:35:24.717Z,42.12
2023-03-27T01:38:04.923Z,42.05
2023-03-27T01:40:34.532Z,42.34
2023-03-27T01:43:03.773Z,42.39
2023-03-27T01:45:36.345Z,42.20
2023-03-27T01:48:06.212Z,41.93
2023-03-27T01:50:35.818Z,42.25
2023-03-27T01:53:06.597Z,41.70
2023-03-27T01:55:37.323Z,41.82
2023-03-27T01:58:07.542Z,41.91
2023-03-27T02:00:50.943Z,41.91
2023-03-27T02:03:22.671Z,42.16
2023-03-27T02:05:53.092Z,42.16
2023-03-27T02:08:24.773Z,42.17
2023-03-27T02:10:59.457Z,41.86
2023-03-27T02:13:31.142Z,42.08
2023-03-27T02:15:59.525Z,41.74
2023-03-27T02:18:31.608Z,42.03
2023-03-27T02:20:59.898Z,41.60
2023-03-27T02:23:30.820Z,41.98
2023-03-27T02:26:00.414Z,41.98
2023-03-27T02:28:35.184Z,41.88
2023-03-27T02:31:32.969Z,41.57
2023-03-27T02:34:12.022Z,41.96
2023-03-27T02:36:43.507Z,41.57
2023-03-27T02:39:14.176Z,41.77
2023-03-27T02:41:45.945Z,41.89
2023-03-27T02:44:46.546Z,41.98
2023-03-27T02:47:17.654Z,42.08
2023-03-27T02:49:47.976Z,41.89
2023-03-27T02:52:19.671Z,41.37
2023-03-27T02:54:49.180Z,41.99
2023-03-27T02:57:20.541Z,41.99
2023-03-27T03:00:19.984Z,41.52
2023-03-27T03:02:55.412Z,41.61
2023-03-27T03:05:23.664Z,41.68
2023-03-27T03:07:54.314Z,41.94
2023-03-27T03:10:26.120Z,41.48
2023-03-27T03:12:55.645Z,41.55
2023-03-27T03:15:23.828Z,41.44
2023-03-27T03:17:52.117Z,41.82
2023-03-27T03:20:21.559Z,41.46
2023-03-27T03:22:49.715Z,41.65
2023-03-27T03:25:19.893Z,41.46
2023-03-27T03:27:48.134Z,41.31
2023-03-27T03:30:18.482Z,41.64
2023-03-27T03:32:58.453Z,41.62
2023-03-27T03:35:26.838Z,41.95
2023-03-27T03:37:58.328Z,41.81
2023-03-27T03:40:27.408Z,41.86
2023-03-27T03:42:58.837Z,41.57
2023-03-27T03:45:31.267Z,41.58
2023-03-27T03:48:00.931Z,41.61
2023-03-27T03:50:29.108Z,41.32
2023-03-27T03:52:57.424Z,41.81
2023-03-27T03:55:26.376Z,41.15
2023-03-27T03:57:55.703Z,41.72
2023-03-27T04:00:27.086Z,41.52
2023-03-27T04:02:59.218Z,41.18
2023-03-27T04:05:27.637Z,41.17
2023-03-27T04:08:00.187Z,41.06
2023-03-27T04:10:50.926Z,41.10
2023-03-27T04:13:42.438Z,41.67
2023-03-27T04:16:28.808Z,41.16
2023-03-27T04:18:59.156Z,41.73
2023-03-27T04:21:29.077Z,41.26
2023-03-27T04:24:02.686Z,41.10
2023-03-27T04:26:43.490Z,41.17
2023-03-27T04:29:30.210Z,41.57
2023-03-27T04:32:01.347Z,41.18
2023-03-27T04:34:40.597Z,41.96
2023-03-27T04:37:27.076Z,41.47
2023-03-27T04:40:18.046Z,41.49
2023-03-27T04:42:46.625Z,41.73
2023-03-27T04:45:17.301Z,41.31
2023-03-27T04:47:50.346Z,41.87
2023-03-27T04:50:20.147Z,41.27
2023-03-27T04:52:50.647Z,40.91
2023-03-27T04:55:20.579Z,41.57
2023-03-27T04:57:51.185Z,41.20
2023-03-27T05:00:23.108Z,41.83
2023-03-27T05:03:18.211Z,41.58
2023-03-27T05:06:02.642Z,41.20
2023-03-27T05:08:31.206Z,41.71
2023-03-27T05:10:59.828Z,41.84
2023-03-27T05:13:31.433Z,41.31
2023-03-27T05:16:01.869Z,41.90
2023-03-27T05:18:38.518Z,41.95
2023-03-27T05:21:11.754Z,41.35
2023-03-27T05:23:40.076Z,42.08
2023-03-27T05:26:09.208Z,41.56
2023-03-27T05:28:49.129Z,41.80
2023-03-27T05:31:17.489Z,42.04
2023-03-27T05:34:08.840Z,41.72
2023-03-27T05:36:40.401Z,41.44
2023-03-27T05:39:08.576Z,41.64
2023-03-27T05:41:41.620Z,41.32
2023-03-27T05:44:09.750Z,41.87
2023-03-27T05:46:42.745Z,41.43
2023-03-27T05:49:19.035Z,41.53
2023-03-27T05:51:53.988Z,41.46
2023-03-27T05:54:22.382Z,41.72
2023-03-27T05:57:01.862Z,41.53
2023-03-27T05:59:30.462Z,41.69
2023-03-27T06:02:20.539Z,41.69
2023-03-27T06:04:56.496Z,41.70
2023-03-27T06:07:32.451Z,41.38
2023-03-27T06:10:07.704Z,41.91
2023-03-27T06:12:45.912Z,41.55
2023-03-27T06:15:26.662Z,41.95
2023-03-27T06:18:10.985Z,41.72
2023-03-27T06:20:40.129Z,41.89
2023-03-27T06:23:09.609Z,41.82
2023-03-27T06:25:39.377Z,41.39
2023-03-27T06:28:09.611Z,41.23
2023-03-27T06:30:49.893Z,41.03
2023-03-27T06:33:41.184Z,41.43
2023-03-27T06:36:20.258Z,41.74
2023-03-27T06:38:54.401Z,41.30
2023-03-27T06:41:23.236Z,41.52
2023-03-27T06:44:09.378Z,41.27
2023-03-27T06:47:00.828Z,41.63
2023-03-27T06:49:49.332Z,41.50
2023-03-27T06:52:22.871Z,41.51
2023-03-27T06:54:53.036Z,41.05
2023-03-27T06:57:21.264Z,41.41
2023-03-27T06:59:51.467Z,41.35
2023-03-27T07:02:24.101Z,41.22
2023-03-27T07:05:28.043Z,41.12
2023-03-27T07:07:57.447Z,40.93
2023-03-27T07:10:30.778Z,40.79
2023-03-27T07:13:00.940Z,40.91
2023-03-27T07:15:29.076Z,41.04
2023-03-27T07:17:57.505Z,41.20
2023-03-27T07:20:27.873Z,41.02
2023-03-27T07:22:57.635Z,41.22
2023-03-27T07:25:46.718Z,40.96
2023-03-27T07:28:23.193Z,40.90
2023-03-27T07:30:51.674Z,40.75
2023-03-27T07:33:22.357Z,41.22
2023-03-27T07:35:50.899Z,41.01
2023-03-27T07:38:46.803Z,40.95
2023-03-27T07:41:30.099Z,41.18
2023-03-27T07:44:18.933Z,40.94
2023-03-27T07:46:57.264Z,41.26
2023-03-27T07:49:39.460Z,40.43
2023-03-27T07:52:14.758Z,40.60
2023-03-27T07:54:53.926Z,40.86
2023-03-27T07:57:26.258Z,40.48
2023-03-27T08:00:01.638Z,40.83
2023-03-27T08:02:45.737Z,40.75
2023-03-27T08:05:16.250Z,40.89
2023-03-27T08:07:48.557Z,40.81
2023-03-27T08:10:30.808Z,40.75
2023-03-27T08:13:04.009Z,40.95
2023-03-27T08:15:32.379Z,41.08
2023-03-27T08:18:02.039Z,40.63
2023-03-27T08:20:31.727Z,40.49
2023-03-27T08:23:00.779Z,40.70
2023-03-27T08:25:33.217Z,40.95
2023-03-27T08:28:05.474Z,40.40
2023-03-27T08:30:33.676Z,40.78
2023-03-27T08:33:02.436Z,40.36
2023-03-27T08:35:31.158Z,40.35
2023-03-27T08:37:59.342Z,40.60
2023-03-27T08:40:49.192Z,40.78
2023-03-27T08:43:28.809Z,40.39
2023-03-27T08:45:59.319Z,40.59
2023-03-27T08:48:30.660Z,40.82
2023-03-27T08:51:00.412Z,40.45
2023-03-27T08:53:33.081Z,40.47
2023-03-27T08:56:03.560Z,40.11
2023-03-27T08:58:40.410Z,40.36
2023-03-27T09:01:26.233Z,40.66
2023-03-27T09:03:59.788Z,40.39
2023-03-27T09:06:30.506Z,40.80
2023-03-27T09:09:07.197Z,40.75
2023-03-27T09:11:47.761Z,40.49
2023-03-27T09:14:34.428Z,40.80
2023-03-27T09:17:06.829Z,39.99
2023-03-27T09:19:40.903Z,40.58
2023-03-27T09:22:12.480Z,40.50
2023-03-27T09:25:03.895Z,40.19
2023-03-27T09:27:50.830Z,40.28
2023-03-27T09:30:43.432Z,40.33
2023-03-27T09:33:28.989Z,39.90
2023-03-27T09:35:57.401Z,40.21
2023-03-27T09:38:28.259Z,40.06
2023-03-27T09:40:59.201Z,39.92
2023-03-27T09:43:31.679Z,40.60
2023-03-27T09:46:03.548Z,40.53
2023-03-27T09:48:36.226Z,40.41
2023-03-27T09:51:41.281Z,40.18
2023-03-27T09:54:29.895Z,40.47
2023-03-27T09:57:01.927Z,39.64
2023-03-27T09:59:30.793Z,39.80
2023-03-27T10:02:18.303Z,40.15
2023-03-27T10:04:59.003Z,39.87
2023-03-27T10:07:33.567Z,40.24
2023-03-27T10:10:11.649Z,39.96
2023-03-27T10:13:05.996Z,40.22
2023-03-27T10:15:42.789Z,39.91
2023-03-27T10:18:24.102Z,39.93
2023-03-27T10:20:55.675Z,40.57
2023-03-27T10:23:25.628Z,40.20
2023-03-27T10:25:55.327Z,40.15
2023-03-27T10:28:28.454Z,40.38
2023-03-27T10:31:26.762Z,39.94
2023-03-27T10:34:32.544Z,39.77
2023-03-27T10:37:21.673Z,39.54
2023-03-27T10:39:56.198Z,40.02
2023-03-27T10:42:33.588Z,39.49
2023-03-27T10:45:01.814Z,39.76
2023-03-27T10:47:32.474Z,40.05
2023-03-27T10:50:09.649Z,40.03
2023-03-27T10:52:50.733Z,39.55
2023-03-27T10:55:34.255Z,39.76
2023-03-27T10:58:06.467Z,39.84
2023-03-27T11:00:39.733Z,39.92
2023-03-27T11:03:12.602Z,40.13
2023-03-27T11:05:44.328Z,39.71
2023-03-27T11:08:24.590Z,39.55
2023-03-27T11:10:52.763Z,39.80
2023-03-27T11:13:29.653Z,39.62
2023-03-27T11:16:05.725Z,39.96
2023-03-27T11:18:55.459Z,39.88
2023-03-27T11:21:28.536Z,39.50
2023-03-27T11:24:01.783Z,39.85
2023-03-27T11:26:50.738Z,39.73
2023-03-27T11:29:23.428Z,39.94
2023-03-27T11:31:55.881Z,39.36
2023-03-27T11:34:48.164Z,39.79
2023-03-27T11:37:40.097Z,39.65
2023-03-27T11:40:13.879Z,39.23
2023-03-27T11:42:43.659Z,39.49
2023-03-27T11:45:13.686Z,39.64
2023-03-27T11:48:10.832Z,39.47
2023-03-27T11:50:49.048Z,39.43
2023-03-27T11:53:28.993Z,39.46
2023-03-27T11:56:21.899Z,39.58
2023-03-27T11:59:05.563Z,39.00
2023-03-27T12:01:35.459Z,39.31
2023-03-27T12:04:25.788Z,39.65
2023-03-27T12:07:18.773Z,39.10
2023-03-27T12:10:00.039Z,39.45
2023-03-27T12:12:53.851Z,39.38
2023-03-27T12:15:30.944Z,39.35
2023-03-27T12:18:02.035Z,39.44
2023-03-27T12:20:54.090Z,39.12
2023-03-27T12:23:30.637Z,39.19
2023-03-27T12:27:14.712Z,39.45
2023-03-27T12:30:06.061Z,39.08
2023-03-27T12:32:56.005Z,38.91
2023-03-27T12:35:27.050Z,39.16
2023-03-27T12:37:58.347Z,39.43
2023-03-27T12:40:29.356Z,39.50
2023-03-27T12:43:12.488Z,38.98
2023-03-27T12:45:51.113Z,39.19
2023-03-27T12:48:22.493Z,38.77
2023-03-27T12:51:00.387Z,38.88
2023-03-27T12:53:49.997Z,39.13
2023-03-27T12:56:27.415Z,38.97
2023-03-27T12:58:57.708Z,39.16
2023-03-27T13:01:49.130Z,38.91
2023-03-27T13:04:48.456Z,38.92
2023-03-27T13:07:20.885Z,39.24
2023-03-27T13:10:21.756Z,38.76
2023-03-27T13:13:02.641Z,38.95
2023-03-27T13:15:54.239Z,38.99
2023-03-27T13:18:37.712Z,39.29
2023-03-27T13:21:14.950Z,38.96
2023-03-27T13:23:50.816Z,38.99
2023-03-27T13:26:32.393Z,38.81
2023-03-27T13:29:02.855Z,38.51
2023-03-27T13:31:58.991Z,38.93
2023-03-27T13:34:35.046Z,38.61
2023-03-27T13:37:40.120Z,38.72
2023-03-27T13:40:34.717Z,39.27
2023-03-27T13:43:18.473Z,39.16
2023-03-27T13:45:49.301Z,38.96
2023-03-27T13:49:00.327Z,39.22
2023-03-27T13:51:51.755Z,39.07
2023-03-27T13:55:10.738Z,38.51
2023-03-27T13:58:20.484Z,38.56
2023-03-27T14:01:11.850Z,39.16
2023-03-27T14:04:09.837Z,38.58
2023-03-27T14:07:16.220Z,38.42
2023-03-27T14:10:05.016Z,38.40
2023-03-27T14:12:53.397Z,39.08
2023-03-27T14:15:53.055Z,38.90
2023-03-27T14:19:04.656Z,38.86
2023-03-27T14:21:50.012Z,38.77
2023-03-27T14:24:24.478Z,38.77
2023-03-27T14:27:00.451Z,38.60
2023-03-27T14:29:28.957Z,38.30
2023-03-27T14:32:03.273Z,38.55
2023-03-27T14:34:51.064Z,38.58
2023-03-27T14:37:41.952Z,38.24
2023-03-27T14:40:32.011Z,38.70
2023-03-27T14:43:03.707Z,38.05
2023-03-27T14:45:33.488Z,38.42
2023-03-27T14:48:06.351Z,38.44
2023-03-27T14:50:44.008Z,38.43
2023-03-27T14:53:17.780Z,38.56
2023-03-27T14:56:24.277Z,38.58
2023-03-27T14:58:52.416Z,38.37
2023-03-27T15:01:22.011Z,38.41
2023-03-27T15:03:54.594Z,38.13
2023-03-27T15:06:26.472Z,38.05
2023-03-27T15:09:05.397Z,38.33
2023-03-27T15:11:55.980Z,38.11
2023-03-27T15:14:30.382Z,38.56
2023-03-27T15:17:00.088Z,38.16
2023-03-27T15:19:28.853Z,38.29
2023-03-27T15:22:01.123Z,38.08
2023-03-27T15:24:36.818Z,37.81
2023-03-27T15:27:05.223Z,38.47
2023-03-27T15:29:39.356Z,38.09
2023-03-27T15:32:09.020Z,38.32
2023-03-27T15:34:46.037Z,37.85
2023-03-27T15:37:15.778Z,38.08
2023-03-27T15:40:01.176Z,38.09
2023-03-27T15:42:33.147Z,38.30
2023-03-27T15:45:03.830Z,38.34
2023-03-27T15:47:33.296Z,37.79
2023-03-27T15:50:17.207Z,38.23
2023-03-27T15:52:48.816Z,38.15
2023-03-27T15:58:17.389Z,37.84
2023-03-27T16:00:47.519Z,38.33
2023-03-27T16:03:18.526Z,38.15
2023-03-27T16:05:46.784Z,38.10
2023-03-27T16:08:23.373Z,38.05
2023-03-27T16:10:57.006Z,37.88
2023-03-27T16:13:29.293Z,37.90
2023-03-27T16:15:59.514Z,37.86
2023-03-27T16:18:29.619Z,37.79
2023-03-27T16:21:06.941Z,37.71
2023-03-27T16:23:35.196Z,37.81
2023-03-27T16:26:03.297Z,37.76
2023-03-27T16:28:32.996Z,38.00
2023-03-27T16:31:01.058Z,37.82
2023-03-27T16:33:29.215Z,37.47
2023-03-27T16:35:58.371Z,37.91
2023-03-27T16:38:26.745Z,37.79
2023-03-27T16:40:54.811Z,38.13
2023-03-27T16:43:23.027Z,37.37
2023-03-27T16:45:52.598Z,37.50
2023-03-27T16:48:21.373Z,37.97
2023-03-27T16:50:49.440Z,37.64
2023-03-27T16:53:17.596Z,37.54
2023-03-27T16:55:45.879Z,37.64
2023-03-27T16:58:14.280Z,37.85
2023-03-27T17:00:42.384Z,37.63
2023-03-27T17:03:12.317Z,37.50
2023-03-27T17:05:40.474Z,37.57
2023-03-27T17:08:08.833Z,37.41
2023-03-27T17:10:36.929Z,37.56
2023-03-27T17:13:05.063Z,37.38
2023-03-27T17:15:36.657Z,37.70
2023-03-27T17:18:05.070Z,37.23
2023-03-27T17:20:35.430Z,37.41
2023-03-27T17:23:03.529Z,37.70
2023-03-27T17:25:31.692Z,37.24
2023-03-27T17:27:59.861Z,37.69
2023-03-27T17:30:37.282Z,37.16
2023-03-27T17:33:09.363Z,36.95
2023-03-27T17:35:40.830Z,36.91
2023-03-27T17:38:09.292Z,37.03
2023-03-27T17:40:40.085Z,37.10
2023-03-27T17:43:08.412Z,37.26
2023-03-27T17:45:36.837Z,36.49
2023-03-27T17:48:07.051Z,37.48
2023-03-27T17:50:35.240Z,37.26
2023-03-27T17:53:04.736Z,36.44
2023-03-27T17:55:32.829Z,34.28
2023-03-27T17:58:08.858Z,34.78
2023-03-27T18:00:37.894Z,35.84
2023-03-27T18:03:06.584Z,35.35
2023-03-27T18:05:37.555Z,35.50
2023-03-27T18:08:07.962Z,36.27
2023-03-27T18:10:37.865Z,35.70
2023-03-27T18:13:06.087Z,35.93
2023-03-27T18:15:34.231Z,36.24
2023-03-27T18:18:03.506Z,36.46
2023-03-27T18:20:31.685Z,36.30
2023-03-27T18:22:59.761Z,35.86
2023-03-27T18:25:29.315Z,35.79
2023-03-27T18:27:57.449Z,36.26
2023-03-27T18:30:25.704Z,36.32
2023-03-27T18:32:53.925Z,36.28
2023-03-27T18:35:22.044Z,36.05
2023-03-27T18:37:50.203Z,36.15
2023-03-27T18:40:19.731Z,35.79
2023-03-27T18:42:49.492Z,36.18
2023-03-27T18:45:17.829Z,36.57
2023-03-27T18:47:46.071Z,36.25
2023-03-27T18:50:14.796Z,36.11
2023-03-27T18:52:42.962Z,36.38
2023-03-27T18:55:13.013Z,36.47
2023-03-27T18:57:41.139Z,36.70
2023-03-27T19:00:18.284Z,36.33
2023-03-27T19:02:46.784Z,36.40
2023-03-27T19:05:15.041Z,36.58
2023-03-27T19:07:44.447Z,36.78
2023-03-27T19:10:14.077Z,36.92
2023-03-27T19:12:45.845Z,36.69
2023-03-27T19:15:34.161Z,36.77
2023-03-27T19:18:21.140Z,36.96
2023-03-27T19:21:08.139Z,37.11
2023-03-27T19:24:03.545Z,36.95
2023-03-27T19:26:39.033Z,37.15
2023-03-27T19:29:07.236Z,37.24
2023-03-27T19:31:36.766Z,37.31
2023-03-27T19:34:04.974Z,37.04
2023-03-27T19:36:33.311Z,37.31
2023-03-27T19:39:01.453Z,37.38
2023-03-27T19:41:29.562Z,37.45
2023-03-27T19:44:00.141Z,37.18
2023-03-27T19:46:29.215Z,37.40
2023-03-27T19:48:59.824Z,37.20
2023-03-27T19:51:46.562Z,37.59
2023-03-27T19:54:15.044Z,37.25
2023-03-27T19:56:43.207Z,37.80
2023-03-27T19:59:15.321Z,37.59
2023-03-27T20:01:52.767Z,37.87
2023-03-27T20:04:22.482Z,37.79
2023-03-27T20:06:50.631Z,37.82
2023-03-27T20:09:19.066Z,37.67
2023-03-27T20:11:47.503Z,37.45
2023-03-27T20:14:15.534Z,38.03
2023-03-27T20:16:43.722Z,37.68
2023-03-27T20:19:14.161Z,37.33
2023-03-27T20:21:43.892Z,37.72
2023-03-27T20:24:17.361Z,38.01
2023-03-27T20:26:53.183Z,37.79
2023-03-27T20:29:24.850Z,37.65
2023-03-27T20:31:53.166Z,37.73
2023-03-27T20:34:22.520Z,38.15
2023-03-27T20:36:53.470Z,37.69
2023-03-27T20:39:44.731Z,37.71
2023-03-27T20:42:15.232Z,37.70
2023-03-27T20:44:44.127Z,37.67
2023-03-27T20:47:12.459Z,37.83
2023-03-27T20:49:44.892Z,37.47
2023-03-27T20:52:15.509Z,37.88
2023-03-27T20:54:43.588Z,37.83
2023-03-27T20:57:13.071Z,37.51
2023-03-27T20:59:41.274Z,37.80
2023-03-27T21:02:14.299Z,37.80
2023-03-27T21:04:42.424Z,38.11
2023-03-27T21:07:10.749Z,37.37
2023-03-27T21:09:40.478Z,37.37
2023-03-27T21:12:09.179Z,37.55
2023-03-27T21:14:37.337Z,37.53
2023-03-27T21:17:05.571Z,37.89
2023-03-27T21:19:33.711Z,37.96
2023-03-27T21:22:01.825Z,37.66
2023-03-27T21:24:29.947Z,37.82
2023-03-27T21:27:00.210Z,37.62
2023-03-27T21:29:28.336Z,37.53
2023-03-27T21:31:56.438Z,37.57
2023-03-27T21:34:24.957Z,37.53
2023-03-27T21:36:53.098Z,37.52
2023-03-27T21:39:21.361Z,37.46
2023-03-27T21:41:49.640Z,37.80
2023-03-27T21:44:19.157Z,37.26
2023-03-27T21:46:47.226Z,37.15
2023-03-27T21:49:15.388Z,37.47
2023-03-27T21:51:44.034Z,36.98
2023-03-27T21:54:12.166Z,37.19
2023-03-27T21:56:40.332Z,37.09
2023-03-27T21:59:08.460Z,37.51
2023-03-27T22:01:37.968Z,37.25
2023-03-27T22:04:06.204Z,37.15
2023-03-27T22:06:34.316Z,37.15
2023-03-27T22:09:02.384Z,37.58
2023-03-27T22:11:30.511Z,37.13
2023-03-27T22:13:59.249Z,37.10
2023-03-27T22:16:27.547Z,37.05
2023-03-27T22:18:57.104Z,37.58
2023-03-27T22:21:26.386Z,37.15
2023-03-27T22:23:54.948Z,37.28
2023-03-27T22:26:24.046Z,37.40
2023-03-27T22:28:52.618Z,37.62
2023-03-27T22:31:21.141Z,37.41
2023-03-27T22:33:49.314Z,37.77
2023-03-27T22:36:19.228Z,37.13
2023-03-27T22:38:47.421Z,37.52
2023-03-27T22:41:15.712Z,36.96
2023-03-27T22:43:43.901Z,37.38
2023-03-27T22:46:12.808Z,37.17
2023-03-27T22:48:41.083Z,37.08
2023-03-27T22:51:09.488Z,37.58
2023-03-27T22:53:39.041Z,37.25
2023-03-27T22:56:08.244Z,37.44
2023-03-27T22:58:36.358Z,37.06
2023-03-27T23:01:05.127Z,37.78
2023-03-27T23:03:33.463Z,37.43
2023-03-27T23:06:01.804Z,37.01
2023-03-27T23:08:30.023Z,37.43
2023-03-27T23:11:00.384Z,36.92
2023-03-27T23:13:29.293Z,37.25
2023-03-27T23:15:57.627Z,37.02
2023-03-27T23:18:25.974Z,37.51
2023-03-27T23:20:55.143Z,37.22
2023-03-27T23:23:23.233Z,37.17
2023-03-27T23:25:51.374Z,37.11
2023-03-27T23:28:20.872Z,37.03
2023-03-27T23:30:55.205Z,37.20
2023-03-27T23:33:25.450Z,37.45
2023-03-27T23:35:53.972Z,36.94
2023-03-27T23:38:22.157Z,37.01
2023-03-27T23:40:56.114Z,37.14
2023-03-27T23:43:26.129Z,37.53
2023-03-27T23:45:55.585Z,37.23
2023-03-27T23:48:23.897Z,37.54
2023-03-27T23:50:53.195Z,36.82
2023-03-27T23:53:22.033Z,36.95
2023-03-27T23:55:50.183Z,37.42
2023-03-27T23:58:18.327Z,36.98
